sensor_id;sensor_type;location;lat;lon;timestamp;temperature;humidity
42145;DHT22;27813;43.516;11.890;2022-10-31T00:01:49;7.40;92.50
42145;DHT22;27813;43.516;11.890;2022-10-31T00:05:54;7.50;92.90
42145;DHT22;27813;43.516;11.890;2022-10-31T00:09:58;7.60;92.90
42145;DHT22;27813;43.516;11.890;2022-10-31T00:14:03;7.60;92.70
42145;DHT22;27813;43.516;11.890;2022-10-31T00:18:09;7.60;92.60
42145;DHT22;27813;43.516;11.890;2022-10-31T00:22:14;7.70;92.80
42145;DHT22;27813;43.516;11.890;2022-10-31T00:26:19;7.80;92.60
42145;DHT22;27813;43.516;11.890;2022-10-31T04:22:52;6.00;92.60
42145;DHT22;27813;43.516;11.890;2022-10-31T04:26:56;5.90;92.60
42145;DHT22;27813;43.516;11.890;2022-10-31T04:31:00;5.80;92.50
42145;DHT22;27813;43.516;11.890;2022-10-31T04:35:05;5.80;92.70
42145;DHT22;27813;43.516;11.890;2022-10-31T04:39:09;5.80;92.80
42145;DHT22;27813;43.516;11.890;2022-10-31T04:43:18;5.70;93.00
42145;DHT22;27813;43.516;11.890;2022-10-31T04:47:31;5.80;93.20
42145;DHT22;27813;43.516;11.890;2022-10-31T04:51:36;5.70;92.90
42145;DHT22;27813;43.516;11.890;2022-10-31T04:55:40;5.60;92.50
42145;DHT22;27813;43.516;11.890;2022-10-31T04:59:57;5.50;92.20
42145;DHT22;27813;43.516;11.890;2022-10-31T05:04:01;5.50;92.20
42145;DHT22;27813;43.516;11.890;2022-10-31T05:08:07;5.40;92.40
42145;DHT22;27813;43.516;11.890;2022-10-31T05:12:12;5.40;92.50
42145;DHT22;27813;43.516;11.890;2022-10-31T05:16:45;5.40;92.40
42145;DHT22;27813;43.516;11.890;2022-10-31T05:21:16;5.40;92.20
42145;DHT22;27813;43.516;11.890;2022-10-31T05:25:26;5.30;92.20
42145;DHT22;27813;43.516;11.890;2022-10-31T05:29:31;5.30;92.00
42145;DHT22;27813;43.516;11.890;2022-10-31T05:33:38;5.20;92.10
42145;DHT22;27813;43.516;11.890;2022-10-31T05:38:00;5.30;92.20
42145;DHT22;27813;43.516;11.890;2022-10-31T05:42:04;5.30;92.60
42145;DHT22;27813;43.516;11.890;2022-10-31T05:46:26;5.40;92.60
42145;DHT22;27813;43.516;11.890;2022-10-31T05:51:03;5.40;92.30
42145;DHT22;27813;43.516;11.890;2022-10-31T05:55:07;5.40;92.30
42145;DHT22;27813;43.516;11.890;2022-10-31T05:59:12;5.30;92.40
42145;DHT22;27813;43.516;11.890;2022-10-31T06:03:16;5.30;92.30
42145;DHT22;27813;43.516;11.890;2022-10-31T06:07:31;5.40;92.30
42145;DHT22;27813;43.516;11.890;2022-10-31T06:11:35;5.40;92.30
42145;DHT22;27813;43.516;11.890;2022-10-31T06:15:39;5.40;92.60
42145;DHT22;27813;43.516;11.890;2022-10-31T06:19:44;5.50;92.90
42145;DHT22;27813;43.516;11.890;2022-10-31T06:23:52;5.60;92.80
42145;DHT22;27813;43.516;11.890;2022-10-31T06:28:19;5.60;92.80
42145;DHT22;27813;43.516;11.890;2022-10-31T06:32:33;5.80;93.00
42145;DHT22;27813;43.516;11.890;2022-10-31T06:36:39;5.90;93.20
42145;DHT22;27813;43.516;11.890;2022-10-31T06:40:44;6.00;93.30
42145;DHT22;27813;43.516;11.890;2022-10-31T06:45:00;6.10;93.10
42145;DHT22;27813;43.516;11.890;2022-10-31T06:49:22;6.10;93.10
42145;DHT22;27813;43.516;11.890;2022-10-31T06:53:30;6.20;93.20
42145;DHT22;27813;43.516;11.890;2022-10-31T06:57:34;6.20;93.20
42145;DHT22;27813;43.516;11.890;2022-10-31T07:01:38;6.30;93.20
42145;DHT22;27813;43.516;11.890;2022-10-31T07:05:43;6.40;93.20
42145;DHT22;27813;43.516;11.890;2022-10-31T07:09:47;6.50;93.40
42145;DHT22;27813;43.516;11.890;2022-10-31T07:13:56;6.60;93.40
42145;DHT22;27813;43.516;11.890;2022-10-31T07:18:01;6.80;93.50
42145;DHT22;27813;43.516;11.890;2022-10-31T07:22:06;7.00;93.40
42145;DHT22;27813;43.516;11.890;2022-10-31T07:26:11;7.20;93.30
42145;DHT22;27813;43.516;11.890;2022-10-31T07:30:20;7.30;93.30
42145;DHT22;27813;43.516;11.890;2022-10-31T07:34:29;7.50;93.30
42145;DHT22;27813;43.516;11.890;2022-10-31T07:39:11;7.70;93.30
42145;DHT22;27813;43.516;11.890;2022-10-31T07:43:16;7.80;93.20
42145;DHT22;27813;43.516;11.890;2022-10-31T07:47:50;7.90;93.30
42145;DHT22;27813;43.516;11.890;2022-10-31T07:52:16;8.10;93.40
42145;DHT22;27813;43.516;11.890;2022-10-31T07:56:42;8.30;93.40
42145;DHT22;27813;43.516;11.890;2022-10-31T08:00:47;8.40;93.40
42145;DHT22;27813;43.516;11.890;2022-10-31T08:05:02;8.50;93.30
42145;DHT22;27813;43.516;11.890;2022-10-31T08:09:25;8.70;93.40
42145;DHT22;27813;43.516;11.890;2022-10-31T08:13:31;8.90;93.40
42145;DHT22;27813;43.516;11.890;2022-10-31T08:17:38;9.00;93.30
42145;DHT22;27813;43.516;11.890;2022-10-31T08:21:43;9.20;93.40
42145;DHT22;27813;43.516;11.890;2022-10-31T08:25:48;9.40;93.40
42145;DHT22;27813;43.516;11.890;2022-10-31T08:29:52;9.50;93.20
42145;DHT22;27813;43.516;11.890;2022-10-31T08:33:58;9.70;93.20
42145;DHT22;27813;43.516;11.890;2022-10-31T08:38:28;9.80;93.10
42145;DHT22;27813;43.516;11.890;2022-10-31T08:42:32;9.90;93.10
42145;DHT22;27813;43.516;11.890;2022-10-31T08:46:37;10.00;93.10
42145;DHT22;27813;43.516;11.890;2022-10-31T08:50:41;10.20;93.10
42145;DHT22;27813;43.516;11.890;2022-10-31T08:54:47;10.30;93.00
42145;DHT22;27813;43.516;11.890;2022-10-31T08:59:12;10.40;93.00
42145;DHT22;27813;43.516;11.890;2022-10-31T09:03:36;10.60;92.80
42145;DHT22;27813;43.516;11.890;2022-10-31T09:07:40;10.70;92.60
42145;DHT22;27813;43.516;11.890;2022-10-31T09:11:46;10.80;92.70
42145;DHT22;27813;43.516;11.890;2022-10-31T09:15:53;10.80;92.60
42145;DHT22;27813;43.516;11.890;2022-10-31T09:20:01;11.00;92.60
42145;DHT22;27813;43.516;11.890;2022-10-31T09:24:08;11.00;92.50
42145;DHT22;27813;43.516;11.890;2022-10-31T09:28:14;11.20;92.50
42145;DHT22;27813;43.516;11.890;2022-10-31T09:32:20;11.40;92.30
42145;DHT22;27813;43.516;11.890;2022-10-31T09:36:24;11.50;92.00
42145;DHT22;27813;43.516;11.890;2022-10-31T09:40:36;11.70;91.90
42145;DHT22;27813;43.516;11.890;2022-10-31T09:44:59;11.80;91.70
42145;DHT22;27813;43.516;11.890;2022-10-31T09:58:15;12.10;91.20
42145;DHT22;27813;43.516;11.890;2022-10-31T10:06:35;12.40;90.90
42145;DHT22;27813;43.516;11.890;2022-10-31T10:24:33;13.00;90.30
42145;DHT22;27813;43.516;11.890;2022-10-31T10:28:41;13.00;90.10
42145;DHT22;27813;43.516;11.890;2022-10-31T10:32:51;13.10;89.90
42145;DHT22;27813;43.516;11.890;2022-10-31T10:37:08;13.30;89.90
42145;DHT22;27813;43.516;11.890;2022-10-31T10:41:22;13.40;89.90
42145;DHT22;27813;43.516;11.890;2022-10-31T10:45:26;13.60;89.60
42145;DHT22;27813;43.516;11.890;2022-10-31T10:49:52;13.80;89.30
42145;DHT22;27813;43.516;11.890;2022-10-31T10:54:37;13.90;89.00
42145;DHT22;27813;43.516;11.890;2022-10-31T10:58:38;14.00;88.70
42145;DHT22;27813;43.516;11.890;2022-10-31T11:02:44;14.10;88.60
42145;DHT22;27813;43.516;11.890;2022-10-31T11:07:03;14.10;88.50
42145;DHT22;27813;43.516;11.890;2022-10-31T11:15:23;14.40;88.20
42145;DHT22;27813;43.516;11.890;2022-10-31T11:19:28;14.40;88.10
42145;DHT22;27813;43.516;11.890;2022-10-31T11:23:32;14.50;87.90
42145;DHT22;27813;43.516;11.890;2022-10-31T11:27:36;14.70;87.80
42145;DHT22;27813;43.516;11.890;2022-10-31T11:31:41;14.80;87.50
42145;DHT22;27813;43.516;11.890;2022-10-31T11:35:48;14.80;87.40
42145;DHT22;27813;43.516;11.890;2022-10-31T11:40:05;15.00;87.10
42145;DHT22;27813;43.516;11.890;2022-10-31T11:44:23;15.00;86.90
42145;DHT22;27813;43.516;11.890;2022-10-31T11:48:29;15.10;86.70
42145;DHT22;27813;43.516;11.890;2022-10-31T11:52:39;15.30;86.60
42145;DHT22;27813;43.516;11.890;2022-10-31T11:56:44;15.50;86.40
42145;DHT22;27813;43.516;11.890;2022-10-31T12:00:51;15.60;86.10
42145;DHT22;27813;43.516;11.890;2022-10-31T12:05:10;15.80;85.80
42145;DHT22;27813;43.516;11.890;2022-10-31T12:09:29;15.90;85.50
42145;DHT22;27813;43.516;11.890;2022-10-31T12:14:04;16.00;85.40
42145;DHT22;27813;43.516;11.890;2022-10-31T12:18:28;16.00;85.20
42145;DHT22;27813;43.516;11.890;2022-10-31T12:22:57;16.10;85.10
42145;DHT22;27813;43.516;11.890;2022-10-31T12:36:36;16.40;84.80
42145;DHT22;27813;43.516;11.890;2022-10-31T12:45:33;16.50;84.30
42145;DHT22;27813;43.516;11.890;2022-10-31T13:03:36;16.70;84.20
42145;DHT22;27813;43.516;11.890;2022-10-31T13:08:00;16.80;84.10
42145;DHT22;27813;43.516;11.890;2022-10-31T13:12:11;16.90;83.90
42145;DHT22;27813;43.516;11.890;2022-10-31T13:16:22;17.00;83.80
42145;DHT22;27813;43.516;11.890;2022-10-31T13:20:38;17.00;83.70
42145;DHT22;27813;43.516;11.890;2022-10-31T13:24:59;17.20;83.50
42145;DHT22;27813;43.516;11.890;2022-10-31T13:33:49;17.30;83.00
42145;DHT22;27813;43.516;11.890;2022-10-31T13:42:23;17.50;82.70
42145;DHT22;27813;43.516;11.890;2022-10-31T13:50:39;17.40;82.80
42145;DHT22;27813;43.516;11.890;2022-10-31T13:54:46;17.40;82.90
42145;DHT22;27813;43.516;11.890;2022-10-31T13:59:04;17.40;83.00
42145;DHT22;27813;43.516;11.890;2022-10-31T14:03:26;17.50;82.90
42145;DHT22;27813;43.516;11.890;2022-10-31T14:07:53;17.50;82.60
42145;DHT22;27813;43.516;11.890;2022-10-31T14:16:32;17.50;82.60
42145;DHT22;27813;43.516;11.890;2022-10-31T14:20:42;17.60;82.60
42145;DHT22;27813;43.516;11.890;2022-10-31T14:24:47;17.60;82.50
42145;DHT22;27813;43.516;11.890;2022-10-31T14:28:52;17.60;82.60
42145;DHT22;27813;43.516;11.890;2022-10-31T14:33:00;17.60;82.50
42145;DHT22;27813;43.516;11.890;2022-10-31T14:54:43;17.50;82.80
42145;DHT22;27813;43.516;11.890;2022-10-31T14:58:48;17.50;83.00
42145;DHT22;27813;43.516;11.890;2022-10-31T15:03:14;17.50;83.00
42145;DHT22;27813;43.516;11.890;2022-10-31T15:07:24;17.50;83.00
42145;DHT22;27813;43.516;11.890;2022-10-31T15:11:37;17.40;83.10
42145;DHT22;27813;43.516;11.890;2022-10-31T15:15:41;17.30;83.30
42145;DHT22;27813;43.516;11.890;2022-10-31T15:19:52;17.20;83.60
42145;DHT22;27813;43.516;11.890;2022-10-31T15:23:59;17.10;83.80
42145;DHT22;27813;43.516;11.890;2022-10-31T15:28:13;16.90;84.00
42145;DHT22;27813;43.516;11.890;2022-10-31T15:32:23;16.60;84.40
42145;DHT22;27813;43.516;11.890;2022-10-31T15:36:29;16.40;84.80
42145;DHT22;27813;43.516;11.890;2022-10-31T15:40:38;16.20;85.20
42145;DHT22;27813;43.516;11.890;2022-10-31T15:44:47;15.90;85.70
42145;DHT22;27813;43.516;11.890;2022-10-31T15:48:51;15.70;86.10
42145;DHT22;27813;43.516;11.890;2022-10-31T15:52:56;15.40;86.60
42145;DHT22;27813;43.516;11.890;2022-10-31T15:57:00;15.10;87.20
42145;DHT22;27813;43.516;11.890;2022-10-31T16:01:18;14.90;87.80
42145;DHT22;27813;43.516;11.890;2022-10-31T16:05:37;14.70;88.40
42145;DHT22;27813;43.516;11.890;2022-10-31T16:09:59;14.40;88.70
42145;DHT22;27813;43.516;11.890;2022-10-31T16:18:17;14.10;89.80
42145;DHT22;27813;43.516;11.890;2022-10-31T16:22:25;14.00;90.10
42145;DHT22;27813;43.516;11.890;2022-10-31T16:26:30;13.90;90.40
42145;DHT22;27813;43.516;11.890;2022-10-31T16:30:41;13.90;90.60
42145;DHT22;27813;43.516;11.890;2022-10-31T16:35:18;13.90;90.60
42145;DHT22;27813;43.516;11.890;2022-10-31T16:39:22;13.90;90.60
42145;DHT22;27813;43.516;11.890;2022-10-31T16:43:28;13.80;90.70
42145;DHT22;27813;43.516;11.890;2022-10-31T16:47:32;13.70;90.70
42145;DHT22;27813;43.516;11.890;2022-10-31T16:51:35;13.50;90.90
42145;DHT22;27813;43.516;11.890;2022-10-31T16:55:58;13.50;91.40
42145;DHT22;27813;43.516;11.890;2022-10-31T17:00:03;13.40;91.60
42145;DHT22;27813;43.516;11.890;2022-10-31T17:04:11;13.30;91.50
42145;DHT22;27813;43.516;11.890;2022-10-31T17:08:16;13.20;91.60
42145;DHT22;27813;43.516;11.890;2022-10-31T17:12:22;13.00;92.00
42145;DHT22;27813;43.516;11.890;2022-10-31T17:16:28;13.00;92.30
42145;DHT22;27813;43.516;11.890;2022-10-31T17:20:32;13.00;92.20
42145;DHT22;27813;43.516;11.890;2022-10-31T17:24:40;12.90;92.10
42145;DHT22;27813;43.516;11.890;2022-10-31T17:28:44;12.70;92.10
42145;DHT22;27813;43.516;11.890;2022-10-31T17:32:49;12.50;92.50
42145;DHT22;27813;43.516;11.890;2022-10-31T17:36:53;12.40;92.70
42145;DHT22;27813;43.516;11.890;2022-10-31T17:41:04;12.40;92.80
42145;DHT22;27813;43.516;11.890;2022-10-31T17:45:14;12.30;92.70
42145;DHT22;27813;43.516;11.890;2022-10-31T17:49:17;12.10;92.70
42145;DHT22;27813;43.516;11.890;2022-10-31T17:53:22;12.00;92.70
42145;DHT22;27813;43.516;11.890;2022-10-31T17:57:26;11.90;92.30
42145;DHT22;27813;43.516;11.890;2022-10-31T18:01:31;11.60;92.20
42145;DHT22;27813;43.516;11.890;2022-10-31T18:05:36;11.50;92.80
42145;DHT22;27813;43.516;11.890;2022-10-31T18:09:41;11.50;92.90
42145;DHT22;27813;43.516;11.890;2022-10-31T18:13:44;11.50;92.90
42145;DHT22;27813;43.516;11.890;2022-10-31T18:17:48;11.40;92.80
42145;DHT22;27813;43.516;11.890;2022-10-31T18:21:52;11.30;92.70
42145;DHT22;27813;43.516;11.890;2022-10-31T18:26:00;11.20;92.80
42145;DHT22;27813;43.516;11.890;2022-10-31T18:30:04;11.20;93.00
42145;DHT22;27813;43.516;11.890;2022-10-31T18:34:08;11.10;93.20
42145;DHT22;27813;43.516;11.890;2022-10-31T18:38:12;11.00;93.70
42145;DHT22;27813;43.516;11.890;2022-10-31T18:42:16;11.10;93.50
42145;DHT22;27813;43.516;11.890;2022-10-31T18:46:20;11.00;93.40
42145;DHT22;27813;43.516;11.890;2022-10-31T18:50:24;11.00;93.10
42145;DHT22;27813;43.516;11.890;2022-10-31T18:54:28;11.00;93.00
42145;DHT22;27813;43.516;11.890;2022-10-31T18:58:32;11.00;93.20
42145;DHT22;27813;43.516;11.890;2022-10-31T19:02:38;11.00;93.20
42145;DHT22;27813;43.516;11.890;2022-10-31T19:06:42;10.90;93.10
42145;DHT22;27813;43.516;11.890;2022-10-31T19:10:46;10.70;92.90
42145;DHT22;27813;43.516;11.890;2022-10-31T19:14:50;10.60;92.80
42145;DHT22;27813;43.516;11.890;2022-10-31T19:18:55;10.50;93.10
42145;DHT22;27813;43.516;11.890;2022-10-31T19:22:59;10.50;93.10
42145;DHT22;27813;43.516;11.890;2022-10-31T19:27:04;10.50;92.80
42145;DHT22;27813;43.516;11.890;2022-10-31T19:31:09;10.40;92.40
42145;DHT22;27813;43.516;11.890;2022-10-31T19:35:14;10.20;92.10
42145;DHT22;27813;43.516;11.890;2022-10-31T19:39:19;10.10;92.10
42145;DHT22;27813;43.516;11.890;2022-10-31T19:43:22;10.00;92.30
42145;DHT22;27813;43.516;11.890;2022-10-31T19:47:29;9.90;92.40
42145;DHT22;27813;43.516;11.890;2022-10-31T19:51:33;9.90;92.90
42145;DHT22;27813;43.516;11.890;2022-10-31T19:55:43;10.10;93.10
42145;DHT22;27813;43.516;11.890;2022-10-31T19:59:52;10.30;92.90
42145;DHT22;27813;43.516;11.890;2022-10-31T20:03:57;10.20;92.60
42145;DHT22;27813;43.516;11.890;2022-10-31T20:08:01;10.10;92.60
42145;DHT22;27813;43.516;11.890;2022-10-31T20:12:06;10.00;92.80
42145;DHT22;27813;43.516;11.890;2022-10-31T20:16:13;9.80;92.90
42145;DHT22;27813;43.516;11.890;2022-10-31T20:20:17;9.70;93.00
42145;DHT22;27813;43.516;11.890;2022-10-31T20:24:22;9.70;93.10
42145;DHT22;27813;43.516;11.890;2022-10-31T20:28:26;9.70;93.40
42145;DHT22;27813;43.516;11.890;2022-10-31T20:32:31;9.70;93.30
42145;DHT22;27813;43.516;11.890;2022-10-31T20:36:37;9.50;93.10
42145;DHT22;27813;43.516;11.890;2022-10-31T20:40:41;9.40;93.20
42145;DHT22;27813;43.516;11.890;2022-10-31T20:44:45;9.40;93.40
42145;DHT22;27813;43.516;11.890;2022-10-31T20:48:52;9.50;93.60
42145;DHT22;27813;43.516;11.890;2022-10-31T20:52:59;9.50;93.00
42145;DHT22;27813;43.516;11.890;2022-10-31T20:57:08;9.50;93.10
42145;DHT22;27813;43.516;11.890;2022-10-31T21:01:21;9.50;93.10
42145;DHT22;27813;43.516;11.890;2022-10-31T21:05:25;9.60;93.50
42145;DHT22;27813;43.516;11.890;2022-10-31T21:09:29;9.70;93.70
42145;DHT22;27813;43.516;11.890;2022-10-31T21:13:37;9.60;93.30
42145;DHT22;27813;43.516;11.890;2022-10-31T21:17:43;9.50;93.00
42145;DHT22;27813;43.516;11.890;2022-10-31T21:21:47;9.50;93.40
42145;DHT22;27813;43.516;11.890;2022-10-31T21:25:51;9.50;93.40
42145;DHT22;27813;43.516;11.890;2022-10-31T21:29:57;9.50;93.30
42145;DHT22;27813;43.516;11.890;2022-10-31T21:34:02;9.40;92.90
42145;DHT22;27813;43.516;11.890;2022-10-31T21:38:08;9.40;93.20
42145;DHT22;27813;43.516;11.890;2022-10-31T21:42:12;9.40;93.50
42145;DHT22;27813;43.516;11.890;2022-10-31T21:46:29;9.40;93.60
42145;DHT22;27813;43.516;11.890;2022-10-31T21:50:36;9.30;93.50
42145;DHT22;27813;43.516;11.890;2022-10-31T21:54:40;9.30;93.50
42145;DHT22;27813;43.516;11.890;2022-10-31T21:58:44;9.30;93.30
42145;DHT22;27813;43.516;11.890;2022-10-31T22:02:48;9.30;93.40
42145;DHT22;27813;43.516;11.890;2022-10-31T22:06:52;9.40;93.80
42145;DHT22;27813;43.516;11.890;2022-10-31T22:10:59;9.40;93.60
42145;DHT22;27813;43.516;11.890;2022-10-31T22:15:04;9.20;93.20
42145;DHT22;27813;43.516;11.890;2022-10-31T22:19:11;9.00;92.90
42145;DHT22;27813;43.516;11.890;2022-10-31T22:23:16;8.80;92.60
42145;DHT22;27813;43.516;11.890;2022-10-31T22:27:20;8.60;92.70
42145;DHT22;27813;43.516;11.890;2022-10-31T22:31:25;8.60;93.00
42145;DHT22;27813;43.516;11.890;2022-10-31T22:35:29;8.50;93.00
42145;DHT22;27813;43.516;11.890;2022-10-31T22:39:33;8.50;93.00
42145;DHT22;27813;43.516;11.890;2022-10-31T22:43:37;8.50;93.10
42145;DHT22;27813;43.516;11.890;2022-10-31T22:47:41;8.50;93.30
42145;DHT22;27813;43.516;11.890;2022-10-31T22:51:44;8.50;93.20
42145;DHT22;27813;43.516;11.890;2022-10-31T22:55:49;8.60;93.50
42145;DHT22;27813;43.516;11.890;2022-10-31T22:59:53;8.70;94.00
42145;DHT22;27813;43.516;11.890;2022-10-31T23:03:57;8.80;93.90
42145;DHT22;27813;43.516;11.890;2022-10-31T23:08:01;8.70;93.30
42145;DHT22;27813;43.516;11.890;2022-10-31T23:12:06;8.50;93.00
42145;DHT22;27813;43.516;11.890;2022-10-31T23:16:28;8.40;92.90
42145;DHT22;27813;43.516;11.890;2022-10-31T23:20:32;8.30;93.10
42145;DHT22;27813;43.516;11.890;2022-10-31T23:24:44;8.30;93.40
42145;DHT22;27813;43.516;11.890;2022-10-31T23:28:49;8.20;93.30
42145;DHT22;27813;43.516;11.890;2022-10-31T23:32:53;8.20;93.00
42145;DHT22;27813;43.516;11.890;2022-10-31T23:36:56;8.10;93.00
42145;DHT22;27813;43.516;11.890;2022-10-31T23:41:00;8.10;93.10
42145;DHT22;27813;43.516;11.890;2022-10-31T23:45:05;8.00;93.00
42145;DHT22;27813;43.516;11.890;2022-10-31T23:49:09;7.90;92.90
42145;DHT22;27813;43.516;11.890;2022-10-31T23:53:13;7.90;93.00
42145;DHT22;27813;43.516;11.890;2022-10-31T23:57:17;7.80;92.80
